Time;durP1;ratioP1;P1;durP2;ratioP2;P2;SDS_P1;SDS_P2;PMS_P1;PMS_P2;Temp;Humidity;BMP_temperature;BMP_pressure;BME280_temperature;BME280_humidity;BME280_pressure;Samples;Min_cycle;Max_cycle;Signal;HPM_P1;HPM_P2
2023/08/11 00:00:25;;;;;;;4.18;2.70;;;;;;;;;;5022529;28;19917;-60
2023/08/11 00:02:53;;;;;;;6.38;2.80;;;;;;;;;;5026177;28;20053;-59
2023/08/11 00:05:19;;;;;;;3.53;2.67;;;;;;;;;;5026183;28;20532;-59
2023/08/11 00:07:52;;;;;;;4.22;2.83;;;;;;;;;;5023846;28;20045;-59
2023/08/11 00:10:19;;;;;;;4.57;2.80;;;;;;;;;;5024871;28;20053;-60
2023/08/11 00:12:46;;;;;;;4.38;2.65;;;;;;;;;;5022361;28;20053;-60
2023/08/11 00:15:13;;;;;;;3.42;2.67;;;;;;;;;;5027283;28;20037;-60
2023/08/11 00:17:40;;;;;;;3.83;2.55;;;;;;;;;;5024811;28;21940;-59
2023/08/11 00:20:08;;;;;;;4.53;2.90;;;;;;;;;;5027909;28;20049;-59
2023/08/11 00:22:37;;;;;;;4.15;3.25;;;;;;;;;;5023204;28;20435;-59
2023/08/11 00:25:03;;;;;;;3.88;3.13;;;;;;;;;;5025210;28;20044;-60
2023/08/11 00:27:29;;;;;;;4.75;3.13;;;;;;;;;;5023123;28;20515;-59
2023/08/11 00:29:57;;;;;;;3.55;2.63;;;;;;;;;;5023139;28;20485;-60
2023/08/11 00:32:24;;;;;;;3.33;2.70;;;;;;;;;;5020690;28;20501;-60
2023/08/11 00:34:51;;;;;;;4.00;2.95;;;;;;;;;;5007892;28;20500;-60
2023/08/11 00:37:17;;;;;;;5.25;3.08;;;;;;;;;;5028689;28;20036;-59
2023/08/11 00:39:43;;;;;;;4.65;3.03;;;;;;;;;;5025538;28;20033;-60
2023/08/11 00:42:09;;;;;;;4.60;3.13;;;;;;;;;;5023026;28;20090;-60
2023/08/11 00:44:35;;;;;;;4.22;2.88;;;;;;;;;;5020535;28;20025;-59
2023/08/11 00:47:02;;;;;;;4.72;3.00;;;;;;;;;;5027180;28;20040;-59
2023/08/11 00:49:29;;;;;;;5.25;2.90;;;;;;;;;;5026521;28;20038;-60
2023/08/11 00:51:55;;;;;;;3.65;2.88;;;;;;;;;;5026099;28;20045;-60
2023/08/11 00:54:21;;;;;;;4.47;2.83;;;;;;;;;;5023898;28;20405;-60
2023/08/11 00:56:48;;;;;;;4.75;2.90;;;;;;;;;;5026419;28;20404;-60
2023/08/11 00:59:22;;;;;;;6.07;3.13;;;;;;;;;;5024777;28;20390;-59
2023/08/11 01:01:48;;;;;;;6.05;3.50;;;;;;;;;;5025167;28;20045;-60
2023/08/11 01:04:14;;;;;;;3.63;3.05;;;;;;;;;;5022572;28;20378;-59
2023/08/11 01:06:49;;;;;;;5.07;3.15;;;;;;;;;;5022523;28;20037;-59
2023/08/11 01:09:52;;;;;;;6.10;3.10;;;;;;;;;;5025709;28;20454;-59
2023/08/11 01:12:40;;;;;;;5.63;2.97;;;;;;;;;;5022300;28;20049;-60
2023/08/11 01:15:19;;;;;;;4.85;3.00;;;;;;;;;;5023970;28;20033;-60
2023/08/11 01:17:48;;;;;;;5.90;3.28;;;;;;;;;;5023500;28;20049;-60
2023/08/11 01:20:16;;;;;;;3.80;2.90;;;;;;;;;;5027173;28;20025;-59
2023/08/11 01:22:44;;;;;;;4.00;3.15;;;;;;;;;;5024750;28;20051;-59
2023/08/11 01:25:12;;;;;;;6.32;3.00;;;;;;;;;;5028572;28;20575;-59
2023/08/11 01:27:52;;;;;;;6.82;3.50;;;;;;;;;;5023099;28;20046;-59
2023/08/11 01:30:18;;;;;;;5.88;3.60;;;;;;;;;;5025605;28;20060;-59
2023/08/11 01:32:47;;;;;;;4.65;3.17;;;;;;;;;;5023981;28;21424;-58
2023/08/11 01:35:14;;;;;;;4.97;3.38;;;;;;;;;;5024732;28;20570;-59
2023/08/11 01:37:40;;;;;;;4.90;3.35;;;;;;;;;;5023294;28;20600;-59
2023/08/11 01:40:10;;;;;;;4.50;3.42;;;;;;;;;;5022325;28;20046;-58
2023/08/11 01:42:41;;;;;;;5.13;3.63;;;;;;;;;;5024851;28;20033;-59
2023/08/11 01:45:09;;;;;;;5.65;3.47;;;;;;;;;;5026058;28;20050;-59
2023/08/11 01:47:38;;;;;;;4.45;3.58;;;;;;;;;;5021797;28;20515;-59
2023/08/11 01:50:06;;;;;;;6.00;3.67;;;;;;;;;;5025016;28;20056;-59
2023/08/11 01:52:39;;;;;;;7.60;3.55;;;;;;;;;;5026008;28;20505;-59
2023/08/11 01:55:10;;;;;;;4.78;3.65;;;;;;;;;;5025899;28;20051;-59
2023/08/11 01:57:38;;;;;;;9.30;4.10;;;;;;;;;;5022658;28;20030;-59
2023/08/11 02:00:09;;;;;;;7.80;4.22;;;;;;;;;;5021382;28;20029;-58
2023/08/11 02:02:40;;;;;;;5.05;3.50;;;;;;;;;;5021868;28;20045;-58
2023/08/11 02:05:15;;;;;;;5.45;3.58;;;;;;;;;;5022171;28;20053;-59
2023/08/11 02:07:43;;;;;;;6.20;3.58;;;;;;;;;;5019793;28;20587;-59
2023/08/11 02:10:09;;;;;;;6.22;3.65;;;;;;;;;;5022253;28;20100;-59
2023/08/11 02:12:36;;;;;;;6.95;3.78;;;;;;;;;;5020497;28;20048;-59
2023/08/11 02:15:06;;;;;;;7.00;3.75;;;;;;;;;;5020883;28;20049;-59
2023/08/11 02:17:33;;;;;;;4.95;3.80;;;;;;;;;;5021314;28;20057;-59
2023/08/11 02:20:00;;;;;;;7.68;4.43;;;;;;;;;;5026240;28;20053;-60
2023/08/11 02:22:26;;;;;;;5.40;3.78;;;;;;;;;;5006233;28;20404;-59
2023/08/11 02:24:53;;;;;;;6.72;4.18;;;;;;;;;;5024022;28;20060;-59
2023/08/11 02:27:19;;;;;;;5.95;4.00;;;;;;;;;;5023438;28;20433;-59
2023/08/11 02:29:45;;;;;;;11.15;4.68;;;;;;;;;;5021969;28;20400;-59
2023/08/11 02:32:11;;;;;;;6.32;4.20;;;;;;;;;;5022544;28;20068;-58
2023/08/11 02:34:38;;;;;;;6.95;4.32;;;;;;;;;;5022606;28;20443;-59
2023/08/11 02:37:04;;;;;;;7.82;4.35;;;;;;;;;;5021526;28;20038;-59
2023/08/11 02:39:30;;;;;;;5.75;4.25;;;;;;;;;;5019424;28;20037;-59
2023/08/11 02:41:56;;;;;;;6.85;4.32;;;;;;;;;;5028004;28;20413;-59
2023/08/11 02:44:22;;;;;;;7.28;4.00;;;;;;;;;;5023378;28;20029;-58
2023/08/11 02:46:48;;;;;;;7.32;4.70;;;;;;;;;;5023610;28;20050;-58
2023/08/11 02:49:14;;;;;;;7.40;4.70;;;;;;;;;;5025636;28;20049;-58
2023/08/11 02:51:40;;;;;;;6.88;4.53;;;;;;;;;;5026917;28;20037;-60
2023/08/11 02:54:06;;;;;;;7.95;4.28;;;;;;;;;;5021638;28;20056;-59
2023/08/11 02:56:33;;;;;;;6.38;4.25;;;;;;;;;;5018259;28;20050;-59
2023/08/11 02:58:59;;;;;;;11.02;4.57;;;;;;;;;;5020907;28;20033;-59
2023/08/11 03:01:25;;;;;;;8.10;4.88;;;;;;;;;;5021894;28;20037;-60
2023/08/11 03:03:52;;;;;;;9.38;5.00;;;;;;;;;;5018189;28;20407;-59
2023/08/11 03:06:19;;;;;;;6.15;4.40;;;;;;;;;;5019390;28;20045;-60
2023/08/11 03:08:45;;;;;;;6.25;4.28;;;;;;;;;;5007171;28;20061;-59
2023/08/11 03:11:11;;;;;;;8.45;4.82;;;;;;;;;;5020228;28;20041;-58
2023/08/11 03:13:38;;;;;;;8.10;4.55;;;;;;;;;;5015291;28;20048;-59
2023/08/11 03:16:05;;;;;;;7.95;5.10;;;;;;;;;;5020013;28;20412;-59
2023/08/11 03:18:31;;;;;;;6.97;4.50;;;;;;;;;;5020102;28;20053;-59
2023/08/11 03:20:59;;;;;;;7.18;5.10;;;;;;;;;;5023386;28;20048;-59
2023/08/11 03:23:27;;;;;;;6.75;4.80;;;;;;;;;;5023485;28;20029;-59
2023/08/11 03:25:53;;;;;;;6.63;4.93;;;;;;;;;;5004552;28;20048;-59
2023/08/11 03:28:21;;;;;;;10.82;5.18;;;;;;;;;;5019615;28;20030;-58
2023/08/11 03:30:48;;;;;;;7.95;4.93;;;;;;;;;;5021616;28;20025;-59
2023/08/11 03:33:14;;;;;;;9.30;5.25;;;;;;;;;;4995004;28;20041;-60
2023/08/11 03:35:49;;;;;;;8.93;5.72;;;;;;;;;;5023840;28;20041;-59
2023/08/11 03:38:15;;;;;;;7.88;5.25;;;;;;;;;;5023878;28;20044;-59
2023/08/11 03:40:41;;;;;;;7.35;5.32;;;;;;;;;;5025098;28;20057;-59
2023/08/11 03:43:08;;;;;;;11.82;5.47;;;;;;;;;;5023589;28;20057;-59
2023/08/11 03:45:34;;;;;;;9.77;5.78;;;;;;;;;;5023705;28;20097;-59
2023/08/11 03:48:01;;;;;;;9.15;5.80;;;;;;;;;;5025446;28;20432;-59
2023/08/11 03:50:27;;;;;;;8.88;5.15;;;;;;;;;;5021621;28;20034;-59
2023/08/11 03:52:53;;;;;;;9.32;5.35;;;;;;;;;;5024140;28;20045;-59
2023/08/11 03:55:20;;;;;;;8.45;5.60;;;;;;;;;;5022508;28;20057;-59
2023/08/11 03:57:46;;;;;;;10.90;5.93;;;;;;;;;;5023052;28;20044;-59
2023/08/11 04:00:15;;;;;;;9.68;5.45;;;;;;;;;;5020445;28;20042;-59
2023/08/11 04:02:44;;;;;;;9.23;5.95;;;;;;;;;;5020806;28;20056;-59
2023/08/11 04:05:14;;;;;;;9.30;5.05;;;;;;;;;;5003214;28;20060;-60
2023/08/11 04:07:40;;;;;;;8.57;5.43;;;;;;;;;;5021794;28;20033;-59
2023/08/11 04:10:10;;;;;;;9.85;5.40;;;;;;;;;;5022143;28;20042;-59
2023/08/11 04:12:36;;;;;;;8.73;5.30;;;;;;;;;;5020680;28;20049;-59
2023/08/11 04:15:03;;;;;;;11.02;6.15;;;;;;;;;;5021530;28;20049;-59
2023/08/11 04:17:33;;;;;;;10.82;5.55;;;;;;;;;;5022944;28;20524;-59
2023/08/11 04:20:00;;;;;;;13.07;6.30;;;;;;;;;;5028871;28;20033;-59
2023/08/11 04:22:27;;;;;;;8.73;5.40;;;;;;;;;;5022288;28;20038;-59
2023/08/11 04:24:53;;;;;;;9.60;5.70;;;;;;;;;;5025197;28;20041;-60
2023/08/11 04:27:19;;;;;;;9.20;5.72;;;;;;;;;;5048401;28;20049;-59
2023/08/11 04:29:47;;;;;;;9.25;5.80;;;;;;;;;;5028306;28;20033;-60
2023/08/11 04:32:13;;;;;;;10.30;5.70;;;;;;;;;;5029050;28;20049;-60
2023/08/11 04:34:40;;;;;;;9.45;5.70;;;;;;;;;;5025324;28;20046;-60
2023/08/11 04:37:08;;;;;;;9.13;5.93;;;;;;;;;;5020259;28;20057;-60
2023/08/11 04:39:36;;;;;;;;;;;;;;;;;;5026014;28;20116;-60
2023/08/11 04:42:05;;;;;;;11.88;6.93;;;;;;;;;;5031590;28;19920;-60
2023/08/11 04:44:33;;;;;;;9.52;6.40;;;;;;;;;;5026770;28;20393;-59
2023/08/11 04:47:00;;;;;;;14.70;7.97;;;;;;;;;;5025426;28;20037;-60
2023/08/11 04:49:26;;;;;;;18.70;9.25;;;;;;;;;;5026368;28;20381;-60
2023/08/11 04:51:52;;;;;;;9.23;5.75;;;;;;;;;;5028377;28;20079;-58
2023/08/11 04:54:18;;;;;;;13.27;7.07;;;;;;;;;;5025268;28;20045;-59
2023/08/11 04:56:46;;;;;;;16.60;9.85;;;;;;;;;;5025441;28;20044;-60
2023/08/11 04:59:12;;;;;;;13.50;7.35;;;;;;;;;;5022936;28;20049;-60
2023/08/11 05:01:38;;;;;;;14.15;7.72;;;;;;;;;;5022620;28;20859;-60
2023/08/11 05:04:04;;;;;;;14.48;6.30;;;;;;;;;;5022697;28;20029;-58
2023/08/11 05:06:31;;;;;;;10.15;6.32;;;;;;;;;;5022025;28;20041;-59
2023/08/11 05:08:57;;;;;;;11.30;6.05;;;;;;;;;;5023857;28;20579;-59
2023/08/11 05:11:23;;;;;;;11.75;6.57;;;;;;;;;;5023715;28;20815;-59
2023/08/11 05:13:49;;;;;;;10.45;6.63;;;;;;;;;;5023521;28;20448;-59
2023/08/11 05:16:15;;;;;;;11.13;6.13;;;;;;;;;;5022593;28;20041;-59
2023/08/11 05:18:41;;;;;;;11.55;6.80;;;;;;;;;;5024063;28;20048;-59
2023/08/11 05:21:07;;;;;;;11.57;7.10;;;;;;;;;;5026372;28;20045;-59
2023/08/11 05:23:33;;;;;;;11.27;6.50;;;;;;;;;;5025700;28;20038;-59
2023/08/11 05:25:59;;;;;;;20.92;9.95;;;;;;;;;;5025740;28;20053;-59
2023/08/11 05:28:25;;;;;;;23.10;10.90;;;;;;;;;;5024805;28;20030;-57
2023/08/11 05:30:52;;;;;;;14.40;6.75;;;;;;;;;;5027828;28;20499;-58
2023/08/11 05:33:18;;;;;;;9.80;6.13;;;;;;;;;;5022620;28;20404;-58
2023/08/11 05:35:44;;;;;;;13.65;6.75;;;;;;;;;;5018925;28;20061;-60
2023/08/11 05:38:10;;;;;;;10.07;6.75;;;;;;;;;;5021932;28;20037;-60
2023/08/11 05:40:36;;;;;;;9.27;6.32;;;;;;;;;;5026063;28;20050;-59
2023/08/11 05:43:03;;;;;;;11.60;7.07;;;;;;;;;;5022611;28;20409;-60
2023/08/11 05:45:29;;;;;;;13.93;7.57;;;;;;;;;;5025877;28;20037;-59
2023/08/11 05:47:56;;;;;;;13.95;7.40;;;;;;;;;;5027272;28;20397;-60
2023/08/11 05:50:22;;;;;;;16.95;8.88;;;;;;;;;;5019622;28;20061;-59
2023/08/11 05:52:48;;;;;;;14.27;7.78;;;;;;;;;;4983906;28;20068;-60
2023/08/11 05:55:14;;;;;;;15.18;8.43;;;;;;;;;;5014232;28;20600;-60
2023/08/11 05:57:40;;;;;;;16.45;9.20;;;;;;;;;;5021996;28;20058;-60
2023/08/11 06:00:08;;;;;;;17.92;7.38;;;;;;;;;;5021830;28;20045;-60
2023/08/11 06:02:41;;;;;;;13.07;7.40;;;;;;;;;;5021679;28;20060;-60
2023/08/11 06:05:08;;;;;;;13.35;7.63;;;;;;;;;;5022787;28;20029;-59
2023/08/11 06:07:34;;;;;;;12.68;7.63;;;;;;;;;;5021548;28;20526;-59
2023/08/11 06:10:00;;;;;;;13.80;7.80;;;;;;;;;;5024172;28;20033;-59
2023/08/11 06:12:26;;;;;;;13.18;7.20;;;;;;;;;;5023387;28;20045;-59
2023/08/11 06:14:52;;;;;;;13.10;7.57;;;;;;;;;;5025110;28;20425;-58
2023/08/11 06:17:18;;;;;;;16.30;7.85;;;;;;;;;;5025104;28;20056;-59
2023/08/11 06:19:44;;;;;;;13.75;7.65;;;;;;;;;;5023997;28;20037;-58
2023/08/11 06:22:10;;;;;;;13.63;7.65;;;;;;;;;;5024080;28;20418;-58
2023/08/11 06:24:36;;;;;;;12.32;6.68;;;;;;;;;;5024492;28;20048;-59
2023/08/11 06:27:03;;;;;;;11.30;7.28;;;;;;;;;;5018830;28;20673;-58
2023/08/11 06:29:29;;;;;;;11.07;6.57;;;;;;;;;;5021903;28;20076;-60
2023/08/11 06:31:55;;;;;;;13.45;7.28;;;;;;;;;;5019531;28;20052;-60
2023/08/11 06:34:21;;;;;;;11.32;6.55;;;;;;;;;;5004623;28;20052;-60
2023/08/11 06:36:47;;;;;;;12.23;6.63;;;;;;;;;;5024939;28;20030;-59
2023/08/11 06:39:14;;;;;;;12.95;7.03;;;;;;;;;;5023759;28;20044;-60
2023/08/11 06:41:41;;;;;;;13.40;6.47;;;;;;;;;;5022319;28;20037;-60
2023/08/11 06:44:07;;;;;;;10.27;6.20;;;;;;;;;;5019736;28;20417;-59
2023/08/11 06:46:34;;;;;;;11.65;6.90;;;;;;;;;;5024471;28;20033;-59
2023/08/11 06:49:00;;;;;;;9.15;5.72;;;;;;;;;;5025627;28;20068;-59
2023/08/11 06:51:26;;;;;;;11.15;6.97;;;;;;;;;;5023118;28;20049;-59
2023/08/11 06:53:52;;;;;;;11.85;6.40;;;;;;;;;;5019779;28;20437;-60
2023/08/11 06:56:18;;;;;;;11.10;6.72;;;;;;;;;;5023121;28;20056;-60
2023/08/11 06:58:44;;;;;;;13.35;7.20;;;;;;;;;;5020158;28;20048;-60
2023/08/11 07:01:10;;;;;;;17.15;6.72;;;;;;;;;;5022046;28;20037;-59
2023/08/11 07:03:36;;;;;;;11.75;6.45;;;;;;;;;;5017943;28;20037;-59
2023/08/11 07:06:03;;;;;;;11.88;7.32;;;;;;;;;;5018380;28;20044;-59
2023/08/11 07:08:29;;;;;;;12.05;6.85;;;;;;;;;;5018139;28;20037;-59
2023/08/11 07:10:55;;;;;;;13.90;6.70;;;;;;;;;;5018683;28;20477;-58
2023/08/11 07:13:21;;;;;;;11.57;6.55;;;;;;;;;;5023578;28;20050;-58
2023/08/11 07:15:48;;;;;;;13.13;7.05;;;;;;;;;;5022380;28;20513;-59
2023/08/11 07:18:14;;;;;;;11.13;6.47;;;;;;;;;;5019457;28;20038;-59
2023/08/11 07:20:41;;;;;;;11.55;6.65;;;;;;;;;;5019764;28;20034;-59
2023/08/11 07:23:07;;;;;;;10.07;6.35;;;;;;;;;;5023334;28;20417;-59
2023/08/11 07:25:33;;;;;;;9.85;6.30;;;;;;;;;;5020614;28;20037;-59
2023/08/11 07:28:00;;;;;;;14.45;6.65;;;;;;;;;;5020109;28;20050;-59
2023/08/11 07:30:26;;;;;;;12.02;6.47;;;;;;;;;;5019833;28;20021;-59
2023/08/11 07:32:52;;;;;;;10.75;6.38;;;;;;;;;;5022695;28;21541;-58
2023/08/11 07:35:18;;;;;;;10.88;7.45;;;;;;;;;;5023317;28;20052;-59
2023/08/11 07:37:44;;;;;;;12.85;6.75;;;;;;;;;;5021969;28;20060;-58
2023/08/11 07:40:11;;;;;;;10.23;6.47;;;;;;;;;;5022559;28;20061;-58
2023/08/11 07:42:37;;;;;;;10.50;6.90;;;;;;;;;;5022358;28;20036;-59
2023/08/11 07:45:04;;;;;;;9.32;6.05;;;;;;;;;;5024298;28;20041;-59
2023/08/11 07:47:30;;;;;;;9.70;6.82;;;;;;;;;;5020590;28;20425;-59
2023/08/11 07:49:56;;;;;;;9.25;5.78;;;;;;;;;;5021712;28;20045;-59
2023/08/11 07:52:22;;;;;;;10.55;6.68;;;;;;;;;;5019875;28;20394;-58
2023/08/11 07:54:48;;;;;;;9.77;6.38;;;;;;;;;;5024607;28;20041;-59
2023/08/11 07:57:14;;;;;;;11.48;6.70;;;;;;;;;;5023804;28;20052;-59
2023/08/11 07:59:40;;;;;;;14.45;6.55;;;;;;;;;;5021480;28;20041;-58
2023/08/11 08:02:07;;;;;;;10.85;6.55;;;;;;;;;;5024081;28;20415;-59
2023/08/11 08:04:33;;;;;;;12.40;6.03;;;;;;;;;;5022128;28;20032;-59
2023/08/11 08:07:00;;;;;;;11.05;6.40;;;;;;;;;;5023187;28;20033;-59
2023/08/11 08:09:26;;;;;;;9.55;6.70;;;;;;;;;;5023420;28;20049;-59
2023/08/11 08:11:52;;;;;;;10.43;6.45;;;;;;;;;;5025375;28;20524;-59
2023/08/11 08:14:18;;;;;;;10.25;6.63;;;;;;;;;;5023360;28;20049;-59
2023/08/11 08:16:44;;;;;;;11.98;6.30;;;;;;;;;;5025337;28;20066;-60
2023/08/11 08:19:11;;;;;;;9.02;6.53;;;;;;;;;;5021356;28;20069;-60
2023/08/11 08:21:38;;;;;;;10.25;6.60;;;;;;;;;;5026673;28;20481;-60
2023/08/11 08:24:05;;;;;;;10.40;6.68;;;;;;;;;;5026973;28;20460;-60
2023/08/11 08:26:31;;;;;;;11.45;6.53;;;;;;;;;;5023921;28;20097;-60
2023/08/11 08:28:58;;;;;;;10.88;6.63;;;;;;;;;;5025849;28;20054;-60
2023/08/11 08:31:24;;;;;;;12.68;7.28;;;;;;;;;;5050267;28;20056;-59
2023/08/11 08:33:50;;;;;;;9.98;6.45;;;;;;;;;;5024240;28;20049;-59
2023/08/11 08:36:16;;;;;;;9.35;6.75;;;;;;;;;;5026040;28;20046;-59
2023/08/11 08:38:42;;;;;;;12.57;6.90;;;;;;;;;;5024780;28;20440;-60
2023/08/11 08:41:09;;;;;;;14.40;7.38;;;;;;;;;;5027393;28;20049;-60
2023/08/11 08:43:35;;;;;;;10.27;7.20;;;;;;;;;;5024220;28;20041;-59
2023/08/11 08:46:03;;;;;;;11.90;7.30;;;;;;;;;;5026050;28;20037;-60
2023/08/11 08:48:40;;;;;;;13.10;7.40;;;;;;;;;;5022883;28;21031;-60
2023/08/11 08:51:07;;;;;;;14.38;7.28;;;;;;;;;;5025217;28;20037;-60
2023/08/11 08:53:33;;;;;;;11.52;8.02;;;;;;;;;;5024081;28;20048;-60
2023/08/11 08:56:04;;;;;;;11.60;7.07;;;;;;;;;;5020138;28;20057;-60
2023/08/11 08:58:31;;;;;;;10.95;6.70;;;;;;;;;;5021814;28;20057;-60
2023/08/11 09:01:01;;;;;;;12.57;6.72;;;;;;;;;;5023172;28;20048;-60
2023/08/11 09:03:31;;;;;;;11.63;7.45;;;;;;;;;;5021909;28;20041;-60
2023/08/11 09:05:58;;;;;;;11.80;7.32;;;;;;;;;;5021915;28;20040;-61
2023/08/11 09:08:24;;;;;;;9.38;6.65;;;;;;;;;;5020939;28;20033;-60
2023/08/11 09:10:50;;;;;;;11.18;6.95;;;;;;;;;;5025240;28;20039;-60
2023/08/11 09:13:16;;;;;;;10.75;7.30;;;;;;;;;;5023423;28;20032;-60
2023/08/11 09:15:43;;;;;;;10.40;7.50;;;;;;;;;;5022293;28;20048;-60
2023/08/11 09:18:15;;;;;;;11.23;7.07;;;;;;;;;;5022657;28;20049;-61
2023/08/11 09:20:42;;;;;;;11.35;7.25;;;;;;;;;;5025237;28;20413;-60
2023/08/11 09:23:08;;;;;;;11.07;7.00;;;;;;;;;;5028102;28;20033;-60
2023/08/11 09:25:34;;;;;;;11.57;6.88;;;;;;;;;;5024716;28;20033;-60
2023/08/11 09:28:00;;;;;;;11.15;7.25;;;;;;;;;;5044355;28;20041;-60
2023/08/11 09:30:31;;;;;;;10.52;6.82;;;;;;;;;;5022053;28;20396;-59
2023/08/11 09:33:01;;;;;;;14.60;6.97;;;;;;;;;;5023211;28;20033;-61
2023/08/11 09:35:28;;;;;;;10.85;6.93;;;;;;;;;;5023603;28;20053;-61
2023/08/11 09:37:55;;;;;;;8.68;6.43;;;;;;;;;;5025977;28;20389;-60
2023/08/11 09:40:22;;;;;;;10.45;6.53;;;;;;;;;;5022121;28;20044;-60
2023/08/11 09:42:48;;;;;;;13.80;6.72;;;;;;;;;;5022567;28;20057;-60
2023/08/11 09:45:14;;;;;;;9.93;6.03;;;;;;;;;;5025232;28;20055;-59
2023/08/11 09:47:40;;;;;;;9.18;5.95;;;;;;;;;;5022565;28;20409;-60
2023/08/11 09:50:08;;;;;;;9.88;6.40;;;;;;;;;;5025978;28;20056;-59
2023/08/11 09:52:35;;;;;;;11.45;6.30;;;;;;;;;;5023917;28;20036;-59
2023/08/11 09:55:06;;;;;;;12.25;6.03;;;;;;;;;;5021436;28;20036;-59
2023/08/11 09:57:37;;;;;;;7.90;5.63;;;;;;;;;;5019710;28;20037;-59
2023/08/11 10:00:12;;;;;;;9.02;5.25;;;;;;;;;;5020326;28;20523;-60
2023/08/11 10:02:49;;;;;;;9.15;5.40;;;;;;;;;;5019186;28;20521;-61
2023/08/11 10:05:17;;;;;;;11.20;5.50;;;;;;;;;;5021336;28;20037;-61
2023/08/11 10:07:46;;;;;;;10.45;5.53;;;;;;;;;;5021722;28;20408;-61
2023/08/11 10:10:16;;;;;;;7.35;5.78;;;;;;;;;;5025626;28;20508;-61
2023/08/11 10:12:47;;;;;;;6.35;5.07;;;;;;;;;;5019963;28;20041;-62
2023/08/11 10:15:16;;;;;;;6.38;5.22;;;;;;;;;;5018168;28;20505;-62
2023/08/11 10:17:43;;;;;;;7.07;5.15;;;;;;;;;;5022063;28;20053;-62
2023/08/11 10:20:10;;;;;;;8.93;4.70;;;;;;;;;;5027432;28;20033;-61
2023/08/11 10:22:36;;;;;;;6.72;4.90;;;;;;;;;;5022895;28;20053;-61
2023/08/11 10:25:04;;;;;;;8.40;5.13;;;;;;;;;;5023853;28;20046;-60
2023/08/11 10:27:31;;;;;;;6.45;4.68;;;;;;;;;;5020410;28;20049;-61
2023/08/11 10:29:57;;;;;;;7.53;4.72;;;;;;;;;;5024588;28;20397;-60
2023/08/11 10:32:31;;;;;;;5.82;4.78;;;;;;;;;;5017904;28;20532;-60
2023/08/11 10:34:57;;;;;;;5.65;4.68;;;;;;;;;;5021688;28;20041;-61
2023/08/11 10:37:29;;;;;;;5.22;4.57;;;;;;;;;;5023462;28;20033;-61
2023/08/11 10:40:06;;;;;;;5.95;4.38;;;;;;;;;;5022819;28;20423;-61
2023/08/11 10:42:36;;;;;;;5.38;4.45;;;;;;;;;;5021714;28;20405;-61
2023/08/11 10:45:13;;;;;;;5.25;4.38;;;;;;;;;;5024710;28;20040;-60
2023/08/11 10:47:52;;;;;;;8.55;4.75;;;;;;;;;;5023595;28;20053;-60
2023/08/11 10:50:19;;;;;;;7.90;4.70;;;;;;;;;;5019635;28;20556;-61
2023/08/11 10:53:05;;;;;;;9.20;4.25;;;;;;;;;;5017484;28;20054;-61
2023/08/11 10:55:35;;;;;;;6.75;4.47;;;;;;;;;;5020038;28;20707;-62
2023/08/11 10:58:17;;;;;;;5.10;3.88;;;;;;;;;;5021560;28;20063;-61
2023/08/11 11:00:43;;;;;;;5.05;3.58;;;;;;;;;;5019501;28;20508;-61
2023/08/11 11:03:11;;;;;;;7.63;3.75;;;;;;;;;;5021373;28;20053;-61
2023/08/11 11:05:41;;;;;;;4.72;3.95;;;;;;;;;;5018376;28;20034;-61
2023/08/11 11:08:08;;;;;;;4.72;3.50;;;;;;;;;;5020350;28;20056;-60
2023/08/11 11:10:34;;;;;;;4.55;3.80;;;;;;;;;;5024698;28;20622;-61
2023/08/11 11:13:00;;;;;;;3.80;3.30;;;;;;;;;;5024608;28;20041;-61
2023/08/11 11:15:30;;;;;;;5.70;3.58;;;;;;;;;;5021701;28;20670;-61
2023/08/11 11:17:56;;;;;;;5.95;3.70;;;;;;;;;;5019399;28;20033;-61
2023/08/11 11:20:22;;;;;;;6.20;3.65;;;;;;;;;;5019502;28;20544;-62
2023/08/11 11:22:49;;;;;;;5.40;3.10;;;;;;;;;;5020000;28;20038;-61
2023/08/11 11:25:17;;;;;;;4.55;3.05;;;;;;;;;;5020055;28;20036;-60
2023/08/11 11:27:43;;;;;;;;;;;;;;;;;;5026289;28;20041;-61
2023/08/11 11:30:10;;;;;;;5.45;3.28;;;;;;;;;;5027539;28;19913;-61
2023/08/11 11:32:37;;;;;;;4.30;3.13;;;;;;;;;;5024886;28;20045;-60
2023/08/11 11:35:05;;;;;;;4.32;3.10;;;;;;;;;;5029438;28;20037;-59
2023/08/11 11:37:33;;;;;;;6.30;3.30;;;;;;;;;;5026207;28;20053;-62
2023/08/11 11:40:04;;;;;;;4.45;3.13;;;;;;;;;;5025004;28;20045;-62
2023/08/11 11:42:30;;;;;;;3.85;3.05;;;;;;;;;;5024970;28;20520;-60
2023/08/11 11:44:58;;;;;;;4.25;2.90;;;;;;;;;;5018402;28;20036;-62
2023/08/11 11:47:25;;;;;;;3.47;2.97;;;;;;;;;;5027015;28;20036;-60
2023/08/11 11:49:58;;;;;;;4.47;3.13;;;;;;;;;;5022274;28;20060;-60
2023/08/11 11:52:25;;;;;;;4.30;3.30;;;;;;;;;;5024474;28;20045;-60
2023/08/11 11:54:52;;;;;;;5.55;3.25;;;;;;;;;;5022389;28;20037;-61
2023/08/11 11:57:19;;;;;;;4.55;3.00;;;;;;;;;;5023336;28;20045;-59
2023/08/11 11:59:48;;;;;;;3.33;3.03;;;;;;;;;;5024154;28;20254;-59
2023/08/11 12:02:16;;;;;;;3.25;2.95;;;;;;;;;;5024706;28;20042;-59
2023/08/11 12:04:43;;;;;;;3.97;2.80;;;;;;;;;;5023493;28;20049;-61
2023/08/11 12:07:09;;;;;;;3.70;2.92;;;;;;;;;;5024731;28;20078;-61
2023/08/11 12:09:51;;;;;;;3.55;3.20;;;;;;;;;;5026596;28;20041;-62
2023/08/11 12:12:17;;;;;;;5.60;3.03;;;;;;;;;;5029185;28;20037;-61
2023/08/11 12:14:43;;;;;;;4.53;2.90;;;;;;;;;;5024529;28;20060;-62
2023/08/11 12:17:10;;;;;;;4.60;2.65;;;;;;;;;;5025632;28;20029;-61
2023/08/11 12:19:36;;;;;;;4.28;2.78;;;;;;;;;;5023135;28;20046;-62
2023/08/11 12:22:03;;;;;;;3.28;2.78;;;;;;;;;;5027745;28;20040;-63
2023/08/11 12:24:29;;;;;;;7.32;3.05;;;;;;;;;;5020213;28;20049;-62
2023/08/11 12:26:55;;;;;;;3.35;2.80;;;;;;;;;;5023338;28;20044;-61
2023/08/11 12:29:21;;;;;;;3.33;2.70;;;;;;;;;;5023635;28;21779;-62
2023/08/11 12:31:50;;;;;;;3.08;2.78;;;;;;;;;;5029165;28;20121;-62
2023/08/11 12:34:16;;;;;;;3.28;2.78;;;;;;;;;;5025317;28;20109;-62
2023/08/11 12:36:42;;;;;;;3.63;2.90;;;;;;;;;;5025394;28;20037;-62
2023/08/11 12:39:08;;;;;;;3.33;2.50;;;;;;;;;;5025569;28;20056;-62
2023/08/11 12:41:35;;;;;;;4.18;2.92;;;;;;;;;;5023858;28;20034;-63
2023/08/11 12:44:01;;;;;;;3.90;2.95;;;;;;;;;;5025997;28;20045;-64
2023/08/11 12:46:29;;;;;;;4.13;2.88;;;;;;;;;;5023101;28;20045;-63
2023/08/11 12:48:55;;;;;;;4.25;2.40;;;;;;;;;;5025582;28;20050;-63
2023/08/11 12:51:21;;;;;;;3.47;2.70;;;;;;;;;;5022241;28;20041;-63
2023/08/11 12:53:47;;;;;;;4.13;2.78;;;;;;;;;;5020608;28;20045;-63
2023/08/11 12:56:13;;;;;;;3.28;2.80;;;;;;;;;;5023021;28;20421;-63
2023/08/11 12:58:39;;;;;;;3.20;2.90;;;;;;;;;;5024277;28;20046;-63
2023/08/11 13:01:06;;;;;;;3.33;2.60;;;;;;;;;;5025990;28;20606;-64
2023/08/11 13:03:33;;;;;;;5.93;2.75;;;;;;;;;;5022786;28;20044;-63
2023/08/11 13:05:59;;;;;;;5.60;3.22;;;;;;;;;;5024428;28;20057;-64
2023/08/11 13:08:25;;;;;;;5.57;2.67;;;;;;;;;;5021709;28;20050;-63
2023/08/11 13:10:51;;;;;;;2.67;2.45;;;;;;;;;;5024605;28;20052;-64
2023/08/11 13:13:17;;;;;;;3.17;2.28;;;;;;;;;;5021596;28;20056;-64
2023/08/11 13:15:44;;;;;;;2.75;2.50;;;;;;;;;;5023651;28;20057;-63
2023/08/11 13:18:10;;;;;;;2.63;2.42;;;;;;;;;;5023568;28;20556;-61
2023/08/11 13:20:36;;;;;;;3.47;2.40;;;;;;;;;;5025876;28;20048;-59
2023/08/11 13:23:03;;;;;;;4.15;2.60;;;;;;;;;;5025293;28;20044;-63
2023/08/11 13:25:29;;;;;;;3.50;2.13;;;;;;;;;;5022084;28;20041;-60
2023/08/11 13:27:55;;;;;;;2.80;2.22;;;;;;;;;;5020403;28;20045;-61
2023/08/11 13:30:24;;;;;;;2.28;2.05;;;;;;;;;;5021752;28;20049;-63
2023/08/11 13:32:50;;;;;;;2.30;1.88;;;;;;;;;;5026367;28;20033;-62
2023/08/11 13:35:16;;;;;;;3.28;1.80;;;;;;;;;;5026165;28;20571;-65
2023/08/11 13:37:43;;;;;;;5.88;2.10;;;;;;;;;;5023194;28;20056;-60
2023/08/11 13:40:09;;;;;;;6.88;2.40;;;;;;;;;;5024538;28;20041;-61
2023/08/11 13:42:35;;;;;;;3.83;1.98;;;;;;;;;;5023792;28;20044;-61
2023/08/11 13:45:02;;;;;;;2.22;1.98;;;;;;;;;;5024489;28;20045;-60
2023/08/11 13:47:28;;;;;;;2.13;1.92;;;;;;;;;;5023716;28;20053;-60
2023/08/11 13:49:54;;;;;;;4.28;1.80;;;;;;;;;;5027525;28;20037;-59
2023/08/11 13:52:20;;;;;;;2.70;1.50;;;;;;;;;;5021782;28;20382;-60
2023/08/11 13:55:03;;;;;;;1.75;1.40;;;;;;;;;;5023037;28;20041;-61
2023/08/11 13:57:30;;;;;;;2.53;1.60;;;;;;;;;;5022340;28;20053;-61
2023/08/11 13:59:58;;;;;;;1.63;1.52;;;;;;;;;;5024515;28;20034;-61
2023/08/11 14:02:26;;;;;;;2.53;1.52;;;;;;;;;;5021944;28;20045;-60
2023/08/11 14:04:55;;;;;;;1.98;1.52;;;;;;;;;;5026590;28;20060;-62
2023/08/11 14:07:21;;;;;;;3.85;1.70;;;;;;;;;;5021410;28;20033;-61
2023/08/11 14:09:47;;;;;;;1.70;1.60;;;;;;;;;;5027143;28;20053;-61
2023/08/11 14:12:14;;;;;;;4.75;1.65;;;;;;;;;;5023767;28;20050;-62
2023/08/11 14:14:41;;;;;;;1.98;1.77;;;;;;;;;;5021724;28;20097;-62
2023/08/11 14:17:07;;;;;;;2.08;1.60;;;;;;;;;;5022225;28;20054;-60
2023/08/11 14:19:33;;;;;;;1.85;1.63;;;;;;;;;;5022510;28;20041;-61
2023/08/11 14:21:59;;;;;;;2.63;2.00;;;;;;;;;;5023939;28;20401;-61
2023/08/11 14:24:25;;;;;;;1.73;1.63;;;;;;;;;;5020517;28;20438;-61
2023/08/11 14:26:51;;;;;;;1.85;1.70;;;;;;;;;;5015486;28;20057;-61
2023/08/11 14:29:17;;;;;;;2.53;1.98;;;;;;;;;;5021803;28;20508;-62
2023/08/11 14:31:43;;;;;;;3.25;1.90;;;;;;;;;;5027194;28;20408;-62
2023/08/11 14:34:09;;;;;;;2.28;2.08;;;;;;;;;;5023378;28;20037;-62
2023/08/11 14:36:35;;;;;;;2.92;1.88;;;;;;;;;;5024539;28;20539;-62
2023/08/11 14:39:04;;;;;;;4.60;2.17;;;;;;;;;;5025899;28;20049;-61